sensor_id;sensor_type;location;lat;lon;timestamp;temperature;humidity
516;DHT22;244;48.508;9.052;2023-09-18T00:02:36;19.40;19.00
516;DHT22;244;48.508;9.052;2023-09-18T00:05:03;19.40;19.00
516;DHT22;244;48.508;9.052;2023-09-18T00:07:30;19.30;19.00
516;DHT22;244;48.508;9.052;2023-09-18T00:09:57;19.30;19.00
516;DHT22;244;48.508;9.052;2023-09-18T00:12:24;19.30;19.10
516;DHT22;244;48.508;9.052;2023-09-18T00:14:52;19.30;19.10
516;DHT22;244;48.508;9.052;2023-09-18T00:17:19;19.30;19.20
516;DHT22;244;48.508;9.052;2023-09-18T00:19:48;19.30;19.20
516;DHT22;244;48.508;9.052;2023-09-18T00:22:17;19.30;19.20
516;DHT22;244;48.508;9.052;2023-09-18T00:24:44;19.30;19.30
516;DHT22;244;48.508;9.052;2023-09-18T00:27:10;19.30;19.30
516;DHT22;244;48.508;9.052;2023-09-18T00:29:38;19.30;19.20
516;DHT22;244;48.508;9.052;2023-09-18T00:32:06;19.30;19.30
516;DHT22;244;48.508;9.052;2023-09-18T00:34:33;19.30;19.40
516;DHT22;244;48.508;9.052;2023-09-18T00:37:00;19.30;19.40
516;DHT22;244;48.508;9.052;2023-09-18T00:39:27;19.40;19.50
516;DHT22;244;48.508;9.052;2023-09-18T00:41:54;19.40;19.50
516;DHT22;244;48.508;9.052;2023-09-18T00:44:21;19.40;19.50
516;DHT22;244;48.508;9.052;2023-09-18T00:46:49;19.40;19.40
516;DHT22;244;48.508;9.052;2023-09-18T00:49:19;19.40;19.40
516;DHT22;244;48.508;9.052;2023-09-18T00:51:46;19.40;19.40
516;DHT22;244;48.508;9.052;2023-09-18T00:54:15;19.40;19.40
516;DHT22;244;48.508;9.052;2023-09-18T00:56:43;19.40;19.40
516;DHT22;244;48.508;9.052;2023-09-18T00:59:10;19.40;19.40
516;DHT22;244;48.508;9.052;2023-09-18T01:01:39;19.40;19.50
516;DHT22;244;48.508;9.052;2023-09-18T01:04:07;19.40;19.50
516;DHT22;244;48.508;9.052;2023-09-18T01:06:36;19.40;19.50
516;DHT22;244;48.508;9.052;2023-09-18T01:09:03;19.40;19.50
516;DHT22;244;48.508;9.052;2023-09-18T01:11:43;19.40;19.50
516;DHT22;244;48.508;9.052;2023-09-18T01:14:19;19.50;19.60
516;DHT22;244;48.508;9.052;2023-09-18T01:16:51;19.50;19.60
516;DHT22;244;48.508;9.052;2023-09-18T01:19:35;19.50;19.60
516;DHT22;244;48.508;9.052;2023-09-18T01:22:04;19.50;19.70
516;DHT22;244;48.508;9.052;2023-09-18T01:24:33;19.50;19.60
516;DHT22;244;48.508;9.052;2023-09-18T01:27:00;19.60;19.60
516;DHT22;244;48.508;9.052;2023-09-18T01:29:28;19.60;19.60
516;DHT22;244;48.508;9.052;2023-09-18T01:31:55;19.70;19.60
516;DHT22;244;48.508;9.052;2023-09-18T01:34:27;19.70;19.60
516;DHT22;244;48.508;9.052;2023-09-18T01:36:58;19.70;19.50
516;DHT22;244;48.508;9.052;2023-09-18T01:39:25;19.60;19.60
516;DHT22;244;48.508;9.052;2023-09-18T01:41:58;19.40;20.40
516;DHT22;244;48.508;9.052;2023-09-18T01:44:25;19.20;21.10
516;DHT22;244;48.508;9.052;2023-09-18T01:46:52;19.10;21.70
516;DHT22;244;48.508;9.052;2023-09-18T01:49:27;19.00;22.70
516;DHT22;244;48.508;9.052;2023-09-18T01:51:54;18.90;23.40
516;DHT22;244;48.508;9.052;2023-09-18T01:54:21;18.80;23.90
516;DHT22;244;48.508;9.052;2023-09-18T01:56:48;18.80;24.60
516;DHT22;244;48.508;9.052;2023-09-18T01:59:17;18.70;25.10
516;DHT22;244;48.508;9.052;2023-09-18T02:01:44;18.70;25.40
516;DHT22;244;48.508;9.052;2023-09-18T02:04:11;18.70;25.90
516;DHT22;244;48.508;9.052;2023-09-18T02:06:37;18.60;26.20
516;DHT22;244;48.508;9.052;2023-09-18T02:09:05;18.60;26.40
516;DHT22;244;48.508;9.052;2023-09-18T02:11:33;18.60;26.60
516;DHT22;244;48.508;9.052;2023-09-18T02:14:00;18.60;26.80
516;DHT22;244;48.508;9.052;2023-09-18T02:16:32;18.60;27.20
516;DHT22;244;48.508;9.052;2023-09-18T02:18:59;18.60;27.50
516;DHT22;244;48.508;9.052;2023-09-18T02:21:26;18.60;27.70
516;DHT22;244;48.508;9.052;2023-09-18T02:23:53;18.60;27.90
516;DHT22;244;48.508;9.052;2023-09-18T02:26:20;18.50;27.90
516;DHT22;244;48.508;9.052;2023-09-18T02:28:48;18.50;28.10
516;DHT22;244;48.508;9.052;2023-09-18T02:31:15;18.50;28.30
516;DHT22;244;48.508;9.052;2023-09-18T02:33:43;18.60;28.60
516;DHT22;244;48.508;9.052;2023-09-18T02:36:10;18.60;28.80
516;DHT22;244;48.508;9.052;2023-09-18T02:38:37;18.60;29.00
516;DHT22;244;48.508;9.052;2023-09-18T02:41:04;18.50;29.20
516;DHT22;244;48.508;9.052;2023-09-18T02:43:31;18.50;29.20
516;DHT22;244;48.508;9.052;2023-09-18T02:45:58;18.50;29.20
516;DHT22;244;48.508;9.052;2023-09-18T02:48:25;18.40;29.40
516;DHT22;244;48.508;9.052;2023-09-18T02:50:53;18.40;29.50
516;DHT22;244;48.508;9.052;2023-09-18T02:53:21;18.40;29.70
516;DHT22;244;48.508;9.052;2023-09-18T02:55:50;18.40;29.80
516;DHT22;244;48.508;9.052;2023-09-18T02:58:17;18.40;29.90
516;DHT22;244;48.508;9.052;2023-09-18T03:00:46;18.40;30.00
516;DHT22;244;48.508;9.052;2023-09-18T03:03:14;18.40;30.00
516;DHT22;244;48.508;9.052;2023-09-18T03:05:42;18.30;30.00
516;DHT22;244;48.508;9.052;2023-09-18T03:08:13;18.30;30.30
516;DHT22;244;48.508;9.052;2023-09-18T03:10:41;18.30;30.40
516;DHT22;244;48.508;9.052;2023-09-18T03:13:09;18.30;30.60
516;DHT22;244;48.508;9.052;2023-09-18T03:15:37;18.30;30.70
516;DHT22;244;48.508;9.052;2023-09-18T03:18:05;18.30;30.80
516;DHT22;244;48.508;9.052;2023-09-18T03:20:32;18.30;30.90
516;DHT22;244;48.508;9.052;2023-09-18T03:23:00;18.30;31.00
516;DHT22;244;48.508;9.052;2023-09-18T03:25:29;18.30;31.10
516;DHT22;244;48.508;9.052;2023-09-18T03:27:57;18.30;31.30
516;DHT22;244;48.508;9.052;2023-09-18T03:30:24;18.30;31.40
516;DHT22;244;48.508;9.052;2023-09-18T03:32:52;18.30;31.40
516;DHT22;244;48.508;9.052;2023-09-18T03:35:20;18.30;31.40
516;DHT22;244;48.508;9.052;2023-09-18T03:37:48;18.30;31.50
516;DHT22;244;48.508;9.052;2023-09-18T03:40:16;18.30;31.60
516;DHT22;244;48.508;9.052;2023-09-18T03:42:45;18.30;31.50
516;DHT22;244;48.508;9.052;2023-09-18T03:45:13;18.40;31.50
516;DHT22;244;48.508;9.052;2023-09-18T03:47:41;18.40;31.40
516;DHT22;244;48.508;9.052;2023-09-18T03:50:09;18.40;31.50
516;DHT22;244;48.508;9.052;2023-09-18T03:52:37;18.40;31.60
516;DHT22;244;48.508;9.052;2023-09-18T03:55:04;18.40;31.60
516;DHT22;244;48.508;9.052;2023-09-18T03:57:31;18.40;31.80
516;DHT22;244;48.508;9.052;2023-09-18T04:00:00;18.40;31.70
516;DHT22;244;48.508;9.052;2023-09-18T04:02:27;18.40;31.70
516;DHT22;244;48.508;9.052;2023-09-18T04:04:54;18.40;31.70
516;DHT22;244;48.508;9.052;2023-09-18T04:07:21;18.40;31.70
516;DHT22;244;48.508;9.052;2023-09-18T04:09:48;18.40;31.80
516;DHT22;244;48.508;9.052;2023-09-18T04:12:15;18.40;31.90
516;DHT22;244;48.508;9.052;2023-09-18T04:14:42;18.40;31.90
516;DHT22;244;48.508;9.052;2023-09-18T04:17:11;18.40;32.00
516;DHT22;244;48.508;9.052;2023-09-18T04:19:37;18.40;32.10
516;DHT22;244;48.508;9.052;2023-09-18T04:22:04;18.50;32.20
516;DHT22;244;48.508;9.052;2023-09-18T04:24:32;18.50;32.30
516;DHT22;244;48.508;9.052;2023-09-18T04:26:59;18.50;32.30
516;DHT22;244;48.508;9.052;2023-09-18T04:29:26;18.50;32.20
516;DHT22;244;48.508;9.052;2023-09-18T04:31:53;18.50;32.30
516;DHT22;244;48.508;9.052;2023-09-18T04:34:21;18.50;32.20
516;DHT22;244;48.508;9.052;2023-09-18T04:36:48;18.50;32.10
516;DHT22;244;48.508;9.052;2023-09-18T04:39:15;18.60;32.40
516;DHT22;244;48.508;9.052;2023-09-18T04:41:42;18.60;32.50
516;DHT22;244;48.508;9.052;2023-09-18T04:44:10;18.60;32.40
516;DHT22;244;48.508;9.052;2023-09-18T04:46:38;18.60;32.50
516;DHT22;244;48.508;9.052;2023-09-18T04:49:07;18.60;32.50
516;DHT22;244;48.508;9.052;2023-09-18T04:51:37;18.60;32.60
516;DHT22;244;48.508;9.052;2023-09-18T04:54:07;18.50;32.70
516;DHT22;244;48.508;9.052;2023-09-18T04:56:34;18.60;33.00
516;DHT22;244;48.508;9.052;2023-09-18T04:59:00;18.60;33.00
516;DHT22;244;48.508;9.052;2023-09-18T05:01:27;18.60;33.10
516;DHT22;244;48.508;9.052;2023-09-18T05:03:55;18.60;33.90
516;DHT22;244;48.508;9.052;2023-09-18T05:06:22;18.70;33.20
516;DHT22;244;48.508;9.052;2023-09-18T05:08:50;18.80;33.20
516;DHT22;244;48.508;9.052;2023-09-18T05:11:18;18.80;33.10
516;DHT22;244;48.508;9.052;2023-09-18T05:13:46;18.80;33.00
516;DHT22;244;48.508;9.052;2023-09-18T05:16:13;18.80;33.10
516;DHT22;244;48.508;9.052;2023-09-18T05:18:40;18.90;33.20
516;DHT22;244;48.508;9.052;2023-09-18T05:21:08;18.90;33.20
516;DHT22;244;48.508;9.052;2023-09-18T05:23:35;18.90;33.30
516;DHT22;244;48.508;9.052;2023-09-18T05:26:03;18.90;33.10
516;DHT22;244;48.508;9.052;2023-09-18T05:28:31;18.90;33.20
516;DHT22;244;48.508;9.052;2023-09-18T05:30:58;19.00;33.20
516;DHT22;244;48.508;9.052;2023-09-18T05:33:25;19.00;33.30
516;DHT22;244;48.508;9.052;2023-09-18T05:35:52;19.00;33.40
516;DHT22;244;48.508;9.052;2023-09-18T05:38:19;19.10;33.40
516;DHT22;244;48.508;9.052;2023-09-18T05:40:46;19.10;33.40
516;DHT22;244;48.508;9.052;2023-09-18T05:43:15;19.20;33.40
516;DHT22;244;48.508;9.052;2023-09-18T05:45:42;19.30;33.40
516;DHT22;244;48.508;9.052;2023-09-18T05:48:09;19.30;33.20
516;DHT22;244;48.508;9.052;2023-09-18T05:50:36;19.40;33.20
516;DHT22;244;48.508;9.052;2023-09-18T05:53:03;19.50;33.30
516;DHT22;244;48.508;9.052;2023-09-18T05:55:30;19.50;33.20
516;DHT22;244;48.508;9.052;2023-09-18T05:57:57;19.50;33.10
516;DHT22;244;48.508;9.052;2023-09-18T06:00:26;19.50;33.00
516;DHT22;244;48.508;9.052;2023-09-18T06:02:56;19.60;33.10
516;DHT22;244;48.508;9.052;2023-09-18T06:05:24;19.60;33.20
516;DHT22;244;48.508;9.052;2023-09-18T06:07:51;19.60;33.10
516;DHT22;244;48.508;9.052;2023-09-18T06:10:18;19.70;33.10
516;DHT22;244;48.508;9.052;2023-09-18T06:12:46;19.70;33.20
516;DHT22;244;48.508;9.052;2023-09-18T06:15:13;19.70;33.20
516;DHT22;244;48.508;9.052;2023-09-18T06:17:43;19.80;33.40
516;DHT22;244;48.508;9.052;2023-09-18T06:20:11;19.80;33.20
516;DHT22;244;48.508;9.052;2023-09-18T06:22:39;19.80;33.10
516;DHT22;244;48.508;9.052;2023-09-18T06:25:07;19.80;33.00
516;DHT22;244;48.508;9.052;2023-09-18T06:27:36;19.80;32.90
516;DHT22;244;48.508;9.052;2023-09-18T06:30:03;19.90;32.90
516;DHT22;244;48.508;9.052;2023-09-18T06:32:30;19.90;32.90
516;DHT22;244;48.508;9.052;2023-09-18T06:34:59;19.90;32.80
516;DHT22;244;48.508;9.052;2023-09-18T06:37:26;20.00;32.90
516;DHT22;244;48.508;9.052;2023-09-18T06:39:53;20.00;32.90
516;DHT22;244;48.508;9.052;2023-09-18T06:42:20;20.00;33.00
516;DHT22;244;48.508;9.052;2023-09-18T06:44:47;20.10;33.00
516;DHT22;244;48.508;9.052;2023-09-18T06:47:14;20.10;33.00
516;DHT22;244;48.508;9.052;2023-09-18T06:49:41;20.10;32.90
516;DHT22;244;48.508;9.052;2023-09-18T06:52:10;20.20;33.00
516;DHT22;244;48.508;9.052;2023-09-18T06:54:38;20.20;33.10
516;DHT22;244;48.508;9.052;2023-09-18T06:57:06;20.20;33.20
516;DHT22;244;48.508;9.052;2023-09-18T06:59:33;20.20;33.20
516;DHT22;244;48.508;9.052;2023-09-18T07:02:00;20.30;33.10
516;DHT22;244;48.508;9.052;2023-09-18T07:04:28;20.40;33.00
516;DHT22;244;48.508;9.052;2023-09-18T07:06:55;20.50;32.90
516;DHT22;244;48.508;9.052;2023-09-18T07:09:23;20.60;32.70
516;DHT22;244;48.508;9.052;2023-09-18T07:11:51;20.70;32.50
516;DHT22;244;48.508;9.052;2023-09-18T07:14:18;20.80;32.40
516;DHT22;244;48.508;9.052;2023-09-18T07:16:45;20.90;32.30
516;DHT22;244;48.508;9.052;2023-09-18T07:19:12;21.00;32.10
516;DHT22;244;48.508;9.052;2023-09-18T07:21:42;21.10;32.00
516;DHT22;244;48.508;9.052;2023-09-18T07:24:10;21.20;31.80
516;DHT22;244;48.508;9.052;2023-09-18T07:26:44;21.30;31.50
516;DHT22;244;48.508;9.052;2023-09-18T07:29:12;21.30;31.40
516;DHT22;244;48.508;9.052;2023-09-18T07:31:41;21.40;31.50
516;DHT22;244;48.508;9.052;2023-09-18T07:34:08;21.40;31.50
516;DHT22;244;48.508;9.052;2023-09-18T07:36:35;21.40;31.50
516;DHT22;244;48.508;9.052;2023-09-18T07:39:02;21.50;31.60
516;DHT22;244;48.508;9.052;2023-09-18T07:41:30;21.50;31.50
516;DHT22;244;48.508;9.052;2023-09-18T07:43:58;21.50;31.50
516;DHT22;244;48.508;9.052;2023-09-18T07:46:25;21.60;31.70
516;DHT22;244;48.508;9.052;2023-09-18T07:48:52;21.70;31.80
516;DHT22;244;48.508;9.052;2023-09-18T07:51:19;21.90;31.90
516;DHT22;244;48.508;9.052;2023-09-18T07:53:46;22.00;32.00
516;DHT22;244;48.508;9.052;2023-09-18T07:56:13;22.00;31.30
516;DHT22;244;48.508;9.052;2023-09-18T07:58:40;22.10;31.40
516;DHT22;244;48.508;9.052;2023-09-18T08:01:09;22.20;30.90
516;DHT22;244;48.508;9.052;2023-09-18T08:03:36;22.30;30.50
516;DHT22;244;48.508;9.052;2023-09-18T08:06:03;22.30;30.10
516;DHT22;244;48.508;9.052;2023-09-18T08:08:31;22.30;29.90
516;DHT22;244;48.508;9.052;2023-09-18T08:11:06;22.20;29.50
516;DHT22;244;48.508;9.052;2023-09-18T08:13:33;22.10;29.20
516;DHT22;244;48.508;9.052;2023-09-18T08:16:01;21.90;29.10
516;DHT22;244;48.508;9.052;2023-09-18T08:18:30;21.70;29.00
516;DHT22;244;48.508;9.052;2023-09-18T08:20:57;21.50;29.30
516;DHT22;244;48.508;9.052;2023-09-18T08:23:24;21.40;29.30
516;DHT22;244;48.508;9.052;2023-09-18T08:25:51;21.20;29.30
516;DHT22;244;48.508;9.052;2023-09-18T08:28:24;20.90;29.40
516;DHT22;244;48.508;9.052;2023-09-18T08:30:51;20.70;29.60
516;DHT22;244;48.508;9.052;2023-09-18T08:33:20;20.50;29.90
516;DHT22;244;48.508;9.052;2023-09-18T08:35:49;20.40;29.80
516;DHT22;244;48.508;9.052;2023-09-18T08:38:16;20.20;29.90
516;DHT22;244;48.508;9.052;2023-09-18T08:40:43;20.20;30.30
516;DHT22;244;48.508;9.052;2023-09-18T08:43:11;20.10;30.30
516;DHT22;244;48.508;9.052;2023-09-18T08:45:46;20.10;30.40
516;DHT22;244;48.508;9.052;2023-09-18T08:48:13;20.00;30.20
516;DHT22;244;48.508;9.052;2023-09-18T08:50:42;20.10;30.40
516;DHT22;244;48.508;9.052;2023-09-18T08:53:11;20.00;30.20
516;DHT22;244;48.508;9.052;2023-09-18T08:55:38;20.00;30.40
516;DHT22;244;48.508;9.052;2023-09-18T08:58:06;19.90;31.00
516;DHT22;244;48.508;9.052;2023-09-18T09:00:33;19.90;31.10
516;DHT22;244;48.508;9.052;2023-09-18T09:03:02;19.90;31.50
516;DHT22;244;48.508;9.052;2023-09-18T09:05:30;19.80;31.70
516;DHT22;244;48.508;9.052;2023-09-18T09:07:57;19.80;32.10
516;DHT22;244;48.508;9.052;2023-09-18T09:10:26;19.80;32.40
516;DHT22;244;48.508;9.052;2023-09-18T09:12:54;19.90;32.60
516;DHT22;244;48.508;9.052;2023-09-18T09:15:24;20.00;32.50
516;DHT22;244;48.508;9.052;2023-09-18T09:17:52;20.10;32.40
516;DHT22;244;48.508;9.052;2023-09-18T09:20:28;20.20;32.60
516;DHT22;244;48.508;9.052;2023-09-18T09:23:00;20.20;32.70
516;DHT22;244;48.508;9.052;2023-09-18T09:25:30;20.30;32.60
516;DHT22;244;48.508;9.052;2023-09-18T09:27:59;20.30;32.60
516;DHT22;244;48.508;9.052;2023-09-18T09:30:28;20.40;32.50
516;DHT22;244;48.508;9.052;2023-09-18T09:32:57;20.40;32.60
516;DHT22;244;48.508;9.052;2023-09-18T09:35:26;20.40;32.50
516;DHT22;244;48.508;9.052;2023-09-18T09:37:56;20.40;32.40
516;DHT22;244;48.508;9.052;2023-09-18T09:40:24;20.30;32.50
516;DHT22;244;48.508;9.052;2023-09-18T09:42:55;20.20;32.60
516;DHT22;244;48.508;9.052;2023-09-18T09:45:27;20.30;33.20
516;DHT22;244;48.508;9.052;2023-09-18T09:47:56;20.40;33.00
516;DHT22;244;48.508;9.052;2023-09-18T09:50:24;20.40;33.10
516;DHT22;244;48.508;9.052;2023-09-18T09:52:53;20.40;33.60
516;DHT22;244;48.508;9.052;2023-09-18T09:55:23;20.40;33.20
516;DHT22;244;48.508;9.052;2023-09-18T09:57:52;20.50;33.20
516;DHT22;244;48.508;9.052;2023-09-18T10:00:21;20.50;33.20
516;DHT22;244;48.508;9.052;2023-09-18T10:02:57;20.60;34.00
516;DHT22;244;48.508;9.052;2023-09-18T10:05:28;20.70;32.90
516;DHT22;244;48.508;9.052;2023-09-18T10:07:58;20.70;32.60
516;DHT22;244;48.508;9.052;2023-09-18T10:10:32;20.60;32.40
516;DHT22;244;48.508;9.052;2023-09-18T10:13:07;20.60;32.50
516;DHT22;244;48.508;9.052;2023-09-18T10:15:38;20.60;32.50
516;DHT22;244;48.508;9.052;2023-09-18T10:18:16;20.60;32.40
516;DHT22;244;48.508;9.052;2023-09-18T10:20:44;20.50;32.30
516;DHT22;244;48.508;9.052;2023-09-18T10:23:25;20.50;32.40
516;DHT22;244;48.508;9.052;2023-09-18T10:25:55;20.40;32.70
516;DHT22;244;48.508;9.052;2023-09-18T10:28:25;20.30;32.90
516;DHT22;244;48.508;9.052;2023-09-18T10:30:56;20.30;33.10
516;DHT22;244;48.508;9.052;2023-09-18T10:33:23;20.30;33.20
516;DHT22;244;48.508;9.052;2023-09-18T10:35:53;20.40;33.20
516;DHT22;244;48.508;9.052;2023-09-18T10:38:20;20.40;33.00
516;DHT22;244;48.508;9.052;2023-09-18T10:40:48;20.40;33.00
516;DHT22;244;48.508;9.052;2023-09-18T10:43:16;20.30;33.20
516;DHT22;244;48.508;9.052;2023-09-18T10:45:44;20.20;33.30
516;DHT22;244;48.508;9.052;2023-09-18T10:48:13;20.20;33.80
516;DHT22;244;48.508;9.052;2023-09-18T10:50:42;20.20;33.50
516;DHT22;244;48.508;9.052;2023-09-18T10:53:11;20.30;33.40
516;DHT22;244;48.508;9.052;2023-09-18T10:55:38;20.30;33.30
516;DHT22;244;48.508;9.052;2023-09-18T10:58:06;20.40;33.20
516;DHT22;244;48.508;9.052;2023-09-18T11:00:33;20.50;33.20
516;DHT22;244;48.508;9.052;2023-09-18T11:03:14;20.60;33.10
516;DHT22;244;48.508;9.052;2023-09-18T11:05:44;20.60;32.90
516;DHT22;244;48.508;9.052;2023-09-18T11:08:30;20.70;32.90
516;DHT22;244;48.508;9.052;2023-09-18T11:11:05;20.70;33.00
516;DHT22;244;48.508;9.052;2023-09-18T11:13:40;20.70;32.90
516;DHT22;244;48.508;9.052;2023-09-18T11:16:16;20.80;32.90
516;DHT22;244;48.508;9.052;2023-09-18T11:18:53;20.80;32.80
516;DHT22;244;48.508;9.052;2023-09-18T11:21:26;20.80;32.80
516;DHT22;244;48.508;9.052;2023-09-18T11:24:01;20.90;32.90
516;DHT22;244;48.508;9.052;2023-09-18T11:26:29;20.90;32.90
516;DHT22;244;48.508;9.052;2023-09-18T11:28:56;20.90;32.90
516;DHT22;244;48.508;9.052;2023-09-18T11:31:44;21.00;32.90
516;DHT22;244;48.508;9.052;2023-09-18T11:34:20;21.00;32.80
516;DHT22;244;48.508;9.052;2023-09-18T11:36:48;21.10;32.90
516;DHT22;244;48.508;9.052;2023-09-18T11:39:33;21.10;32.80
516;DHT22;244;48.508;9.052;2023-09-18T11:42:09;21.20;32.70
516;DHT22;244;48.508;9.052;2023-09-18T11:44:37;21.20;32.60
516;DHT22;244;48.508;9.052;2023-09-18T11:47:09;21.10;32.50
516;DHT22;244;48.508;9.052;2023-09-18T11:49:40;21.20;32.60
516;DHT22;244;48.508;9.052;2023-09-18T11:52:15;21.20;32.60
516;DHT22;244;48.508;9.052;2023-09-18T11:54:43;21.20;32.80
516;DHT22;244;48.508;9.052;2023-09-18T11:57:20;21.20;32.80
516;DHT22;244;48.508;9.052;2023-09-18T11:59:48;21.30;32.80
516;DHT22;244;48.508;9.052;2023-09-18T12:02:25;21.30;32.70
516;DHT22;244;48.508;9.052;2023-09-18T12:04:55;21.40;32.70
516;DHT22;244;48.508;9.052;2023-09-18T12:07:22;21.40;32.60
516;DHT22;244;48.508;9.052;2023-09-18T12:09:50;21.40;32.40
516;DHT22;244;48.508;9.052;2023-09-18T12:12:17;21.40;32.50
516;DHT22;244;48.508;9.052;2023-09-18T12:14:44;21.50;32.60
516;DHT22;244;48.508;9.052;2023-09-18T12:17:14;21.50;32.70
516;DHT22;244;48.508;9.052;2023-09-18T12:19:50;21.70;32.80
516;DHT22;244;48.508;9.052;2023-09-18T12:22:25;21.80;32.60
516;DHT22;244;48.508;9.052;2023-09-18T12:24:52;22.00;32.60
516;DHT22;244;48.508;9.052;2023-09-18T12:27:19;22.20;32.20
516;DHT22;244;48.508;9.052;2023-09-18T12:29:46;22.50;32.50
516;DHT22;244;48.508;9.052;2023-09-18T12:32:13;22.80;32.40
516;DHT22;244;48.508;9.052;2023-09-18T12:34:41;23.10;31.70
516;DHT22;244;48.508;9.052;2023-09-18T12:37:08;23.30;31.10
516;DHT22;244;48.508;9.052;2023-09-18T12:39:38;23.40;30.60
516;DHT22;244;48.508;9.052;2023-09-18T12:42:05;23.50;30.10
516;DHT22;244;48.508;9.052;2023-09-18T12:44:32;23.50;29.20
516;DHT22;244;48.508;9.052;2023-09-18T12:47:01;23.60;29.00
516;DHT22;244;48.508;9.052;2023-09-18T12:49:30;23.80;28.30
516;DHT22;244;48.508;9.052;2023-09-18T12:51:58;24.00;27.60
516;DHT22;244;48.508;9.052;2023-09-18T12:54:41;24.20;27.30
516;DHT22;244;48.508;9.052;2023-09-18T12:57:08;24.50;26.90
516;DHT22;244;48.508;9.052;2023-09-18T12:59:36;24.70;26.60
516;DHT22;244;48.508;9.052;2023-09-18T13:02:04;24.80;26.10
516;DHT22;244;48.508;9.052;2023-09-18T13:04:31;24.90;25.60
516;DHT22;244;48.508;9.052;2023-09-18T13:07:10;25.00;25.00
516;DHT22;244;48.508;9.052;2023-09-18T13:09:37;25.00;25.00
516;DHT22;244;48.508;9.052;2023-09-18T13:12:07;25.00;24.70
516;DHT22;244;48.508;9.052;2023-09-18T13:14:59;25.00;24.20
516;DHT22;244;48.508;9.052;2023-09-18T13:17:37;25.00;23.80
516;DHT22;244;48.508;9.052;2023-09-18T13:20:09;25.10;23.80
516;DHT22;244;48.508;9.052;2023-09-18T13:22:36;25.40;23.10
516;DHT22;244;48.508;9.052;2023-09-18T13:25:03;25.50;22.90
516;DHT22;244;48.508;9.052;2023-09-18T13:27:32;25.60;22.40
516;DHT22;244;48.508;9.052;2023-09-18T13:29:59;25.60;22.10
516;DHT22;244;48.508;9.052;2023-09-18T13:32:33;25.60;21.90
516;DHT22;244;48.508;9.052;2023-09-18T13:35:01;25.60;21.70
516;DHT22;244;48.508;9.052;2023-09-18T13:37:31;25.60;21.70
516;DHT22;244;48.508;9.052;2023-09-18T13:39:58;25.50;21.40
516;DHT22;244;48.508;9.052;2023-09-18T13:42:27;25.40;21.40
516;DHT22;244;48.508;9.052;2023-09-18T13:44:57;25.40;21.20
516;DHT22;244;48.508;9.052;2023-09-18T13:47:26;25.40;21.10
516;DHT22;244;48.508;9.052;2023-09-18T13:49:53;25.40;20.80
516;DHT22;244;48.508;9.052;2023-09-18T13:52:22;25.40;20.40
516;DHT22;244;48.508;9.052;2023-09-18T13:54:50;25.40;20.10
516;DHT22;244;48.508;9.052;2023-09-18T13:57:17;25.40;19.90
516;DHT22;244;48.508;9.052;2023-09-18T13:59:45;25.40;20.00
516;DHT22;244;48.508;9.052;2023-09-18T14:02:14;25.40;20.00
516;DHT22;244;48.508;9.052;2023-09-18T14:04:41;25.40;20.10
516;DHT22;244;48.508;9.052;2023-09-18T14:07:10;25.40;20.10
516;DHT22;244;48.508;9.052;2023-09-18T14:09:37;25.40;19.60
516;DHT22;244;48.508;9.052;2023-09-18T14:12:06;25.30;19.60
516;DHT22;244;48.508;9.052;2023-09-18T14:14:34;25.30;19.30
516;DHT22;244;48.508;9.052;2023-09-18T14:17:01;25.30;19.20
516;DHT22;244;48.508;9.052;2023-09-18T14:19:30;25.30;19.10
516;DHT22;244;48.508;9.052;2023-09-18T14:21:57;25.30;19.50
516;DHT22;244;48.508;9.052;2023-09-18T14:24:29;25.30;19.40
516;DHT22;244;48.508;9.052;2023-09-18T14:26:56;25.20;19.40
516;DHT22;244;48.508;9.052;2023-09-18T14:29:23;25.20;19.40
516;DHT22;244;48.508;9.052;2023-09-18T14:31:50;25.20;19.50
516;DHT22;244;48.508;9.052;2023-09-18T14:34:17;25.10;19.60
516;DHT22;244;48.508;9.052;2023-09-18T14:36:45;25.10;19.80
516;DHT22;244;48.508;9.052;2023-09-18T14:39:12;25.10;19.90
516;DHT22;244;48.508;9.052;2023-09-18T14:41:40;25.20;19.30
516;DHT22;244;48.508;9.052;2023-09-18T14:44:08;25.10;19.30
516;DHT22;244;48.508;9.052;2023-09-18T14:46:35;25.10;19.40
516;DHT22;244;48.508;9.052;2023-09-18T14:49:04;25.10;19.10
516;DHT22;244;48.508;9.052;2023-09-18T14:51:35;25.20;19.20
516;DHT22;244;48.508;9.052;2023-09-18T14:54:04;25.20;18.90
516;DHT22;244;48.508;9.052;2023-09-18T14:56:33;25.20;19.10
516;DHT22;244;48.508;9.052;2023-09-18T14:59:01;25.20;19.10
516;DHT22;244;48.508;9.052;2023-09-18T15:01:28;25.20;19.20
516;DHT22;244;48.508;9.052;2023-09-18T15:03:55;25.10;19.30
516;DHT22;244;48.508;9.052;2023-09-18T15:06:22;25.10;19.10
516;DHT22;244;48.508;9.052;2023-09-18T15:08:50;25.00;19.30
516;DHT22;244;48.508;9.052;2023-09-18T15:11:18;25.00;19.50
516;DHT22;244;48.508;9.052;2023-09-18T15:13:45;25.00;19.10
516;DHT22;244;48.508;9.052;2023-09-18T15:16:12;25.00;18.90
516;DHT22;244;48.508;9.052;2023-09-18T15:18:39;25.00;18.80
516;DHT22;244;48.508;9.052;2023-09-18T15:21:06;25.10;18.50
516;DHT22;244;48.508;9.052;2023-09-18T15:23:33;25.30;18.50
516;DHT22;244;48.508;9.052;2023-09-18T15:26:00;25.40;18.40
516;DHT22;244;48.508;9.052;2023-09-18T15:28:29;25.40;17.90
516;DHT22;244;48.508;9.052;2023-09-18T15:31:15;25.40;17.50
516;DHT22;244;48.508;9.052;2023-09-18T15:33:42;25.40;17.80
516;DHT22;244;48.508;9.052;2023-09-18T15:36:10;25.40;18.20
516;DHT22;244;48.508;9.052;2023-09-18T15:38:38;25.30;18.40
516;DHT22;244;48.508;9.052;2023-09-18T15:41:05;25.20;18.30
516;DHT22;244;48.508;9.052;2023-09-18T15:43:35;25.00;18.30
516;DHT22;244;48.508;9.052;2023-09-18T15:46:02;24.90;18.50
516;DHT22;244;48.508;9.052;2023-09-18T15:48:29;24.70;18.70
516;DHT22;244;48.508;9.052;2023-09-18T15:50:56;24.60;18.80
516;DHT22;244;48.508;9.052;2023-09-18T15:53:23;24.50;19.00
516;DHT22;244;48.508;9.052;2023-09-18T15:55:50;24.40;19.20
516;DHT22;244;48.508;9.052;2023-09-18T15:58:17;24.30;19.00
516;DHT22;244;48.508;9.052;2023-09-18T16:00:47;24.20;19.00
516;DHT22;244;48.508;9.052;2023-09-18T16:03:14;24.20;18.90
516;DHT22;244;48.508;9.052;2023-09-18T16:05:42;24.20;18.80
516;DHT22;244;48.508;9.052;2023-09-18T16:08:09;24.20;18.80
516;DHT22;244;48.508;9.052;2023-09-18T16:10:36;24.20;19.00
516;DHT22;244;48.508;9.052;2023-09-18T16:13:03;24.10;19.10
516;DHT22;244;48.508;9.052;2023-09-18T16:15:31;24.00;19.20
516;DHT22;244;48.508;9.052;2023-09-18T16:18:00;24.00;19.20
516;DHT22;244;48.508;9.052;2023-09-18T16:20:27;24.00;19.30
516;DHT22;244;48.508;9.052;2023-09-18T16:22:53;24.00;19.30
516;DHT22;244;48.508;9.052;2023-09-18T16:25:20;23.90;19.30
516;DHT22;244;48.508;9.052;2023-09-18T16:27:48;23.90;19.40
516;DHT22;244;48.508;9.052;2023-09-18T16:30:16;23.90;19.50
516;DHT22;244;48.508;9.052;2023-09-18T16:32:43;23.80;19.20
516;DHT22;244;48.508;9.052;2023-09-18T16:35:11;23.70;19.20
516;DHT22;244;48.508;9.052;2023-09-18T16:37:38;23.70;19.40
516;DHT22;244;48.508;9.052;2023-09-18T16:40:11;23.60;19.60
516;DHT22;244;48.508;9.052;2023-09-18T16:42:39;23.60;19.60
516;DHT22;244;48.508;9.052;2023-09-18T16:45:07;23.40;19.50